Weather at Lebanon Municipal Airport

Public forecast

Using degrees Fahrenheit for public forecast. Weather courtesy of forecast.io.

Current aviation weather report (METAR) for Lebanon Municipal Airport

Retrieved 2022/01/25 14:15 UTC (34 seconds ago):

KM54 251415Z AUTO 34010KT 10SM FEW021 OVC055 01/M03 A3009 RMK A01

Closest aviation forecast (TAF) to Lebanon Municipal Airport

Closest forecast is Smyrna Airport, 14.7 nm (27.3 km) SW. Retrieved 2022/01/25 12:21 UTC (2 hours ago):

TAF KMQY 251120Z 2512/2612 35010KT P6SM BKN050 FM251500 36011G17KT P6SM OVC025 FM251900 36010G15KT P6SM BKN250 FM260000 36008KT P6SM SCT250